Terminal Aerodrome Forecast
Issued by NWS Wilmington, OH

Current Version | Previous Version | Text Only | Print | Product List | Glossary Off
Versions: 1 2 3 4 5 6 7 8 9 10 11 12 13 14 15 16

000
FTUS41 KILN 220500
TAFDAY
TAF
KDAY 220528Z 2206/2306 26007KT P6SM SCT040 OVC070
     FM221000 28010KT P6SM BKN025 OVC050
      TEMPO 2210/2212 5SM -SHRA BR
     FM221200 31014KT P6SM SCT030 BKN050
     FM221500 31017G25KT P6SM FEW040
     FM230000 33011KT P6SM SKC=

USA.gov is the U.S. government's official web portal to all federal, state and local government web resources and services.